KPWA/PWA METAR and TAF weather

Enter ICAO airport designator
Station Type Date Time Source
KPWA METAR 2020/08/12 17:02 UTC NOAA

KPWA 121702Z 12005KT 10SM SCT015 BKN110 27/21 A3000 RMK AO2 T02670211


Station Type Date Time Source
KPWA Decoded METAR 2020/08/12 17:02 UTC NOAA

WILEY POST, OK, United States (KPWA) 35-32N 97-39W 397M
Aug 12, 2020 - 01:02 PM EDT / 2020.08.12 1702 UTC
Wind: from the ESE (120 degrees) at 6 MPH (5 KT):0
Visibility: 10 mile(s):0
Sky conditions: mostly cloudy
Temperature: 80.1 F (26.7 C)
Dew Point: 70.0 F (21.1 C)
Relative Humidity: 71%
Pressure (altimeter): 30 in. Hg (1015 hPa)
ob: KPWA 121702Z 12005KT 10SM SCT015 BKN110 27/21 A3000 RMK AO2 T02670211
cycle: 17

Station Type Date Time Source
KPWA TAF UTC NOAA

Error!

Example: see airport list